Terminal Aerodrome Forecast
Issued by NWS

Home | Current Version | Previous Version | Text Only | Print | Product List | Glossary On
Versions: 1 2 3 4 5 6 7 8 9 10 11 12 13 14 15 16 17 18 19 20 21 22
585
FTUS46 KPDT 071720
TAFALW
TAF
KALW 071720Z 0718/0818 VRB04KT P6SM OVC080
     FM072200 02006KT P6SM BKN080
     FM080300 12004KT P6SM FEW080 SCT250
     FM081200 16005KT P6SM SCT150 BKN200
     FM081700 18005KT P6SM BKN080 OVC100=

USA.gov is the U.S. government's official web portal to all federal, state and local government web resources and services.